Time;durP1;ratioP1;P1;durP2;ratioP2;P2;SDS_P1;SDS_P2;PMS_P1;PMS_P2;Temp;Humidity;BMP_temperature;BMP_pressure;BME280_temperature;BME280_humidity;BME280_pressure;Samples;Min_cycle;Max_cycle;Signal;HPM_P1;HPM_P2
2022/07/04 00:01:13;;;;;;;2.47;1.50;;;;;;;;;;4935196;29;20188;-85
2022/07/04 00:04:17;;;;;;;4.33;1.90;;;;;;;;;;4958450;23;20249;-86
2022/07/04 00:07:22;;;;;;;1.90;1.70;;;;;;;;;;4994263;28;20182;-86
2022/07/04 00:10:26;;;;;;;1.90;1.80;;;;;;;;;;4982847;28;20186;-86
2022/07/04 00:13:30;;;;;;;1.87;1.60;;;;;;;;;;4991669;28;20219;-86
2022/07/04 00:16:35;;;;;;;4.03;1.70;;;;;;;;;;4965821;29;20527;-84
2022/07/04 00:19:39;;;;;;;4.07;1.67;;;;;;;;;;4944722;29;20191;-84
2022/07/04 00:22:44;;;;;;;1.53;1.43;;;;;;;;;;4962867;29;20179;-86
2022/07/04 00:25:48;;;;;;;2.60;1.77;;;;;;;;;;4941588;29;20231;-85
2022/07/04 00:28:52;;;;;;;3.03;1.63;;;;;;;;;;4951047;29;20183;-86
2022/07/04 00:31:56;;;;;;;2.40;1.60;;;;;;;;;;4951163;28;20195;-86
2022/07/04 00:35:01;;;;;;;1.90;1.63;;;;;;;;;;4949522;28;20239;-86
2022/07/04 00:38:05;;;;;;;3.53;1.50;;;;;;;;;;4951350;29;20192;-86
2022/07/04 00:41:09;;;;;;;2.87;1.50;;;;;;;;;;4937920;29;20184;-86
2022/07/04 00:44:15;;;;;;;2.40;1.80;;;;;;;;;;4959470;28;20219;-86
2022/07/04 00:47:19;;;;;;;4.67;1.70;;;;;;;;;;4971864;28;20203;-86
2022/07/04 00:50:25;;;;;;;1.87;1.50;;;;;;;;;;4938915;29;20203;-86
2022/07/04 00:53:30;;;;;;;2.30;1.60;;;;;;;;;;4959533;28;20535;-85
2022/07/04 00:56:39;;;;;;;3.23;1.60;;;;;;;;;;4950853;29;20191;-86
2022/07/04 00:59:43;;;;;;;2.63;1.50;;;;;;;;;;4942877;28;20195;-86
2022/07/04 01:02:48;;;;;;;3.80;1.70;;;;;;;;;;4956420;28;20191;-86
2022/07/04 01:05:52;;;;;;;2.80;1.60;;;;;;;;;;4970379;28;20222;-86
2022/07/04 01:08:56;;;;;;;4.27;1.70;;;;;;;;;;4955664;28;20191;-86
2022/07/04 01:12:01;;;;;;;2.10;1.40;;;;;;;;;;4980130;28;20190;-86
2022/07/04 01:15:06;;;;;;;1.67;1.50;;;;;;;;;;4957023;28;20235;-86
2022/07/04 01:18:11;;;;;;;4.30;1.77;;;;;;;;;;4944173;28;20203;-86
2022/07/04 01:21:15;;;;;;;1.63;1.27;;;;;;;;;;4947982;28;20196;-86
2022/07/04 01:24:18;;;;;;;1.70;1.30;;;;;;;;;;4953063;28;20222;-85
2022/07/04 01:27:23;;;;;;;3.50;1.63;;;;;;;;;;4965165;28;20638;-85
2022/07/04 01:30:29;;;;;;;1.87;1.40;;;;;;;;;;4953683;28;20190;-85
2022/07/04 01:33:33;;;;;;;4.90;1.67;;;;;;;;;;4924517;29;20188;-85
2022/07/04 01:36:37;;;;;;;3.77;1.60;;;;;;;;;;4939743;28;20191;-85
2022/07/04 01:39:42;;;;;;;2.80;1.60;;;;;;;;;;4946439;29;20646;-85
2022/07/04 01:42:46;;;;;;;2.70;1.47;;;;;;;;;;4935850;29;20208;-85
2022/07/04 01:45:50;;;;;;;3.00;1.83;;;;;;;;;;4945680;29;20219;-85
2022/07/04 01:48:54;;;;;;;2.10;1.53;;;;;;;;;;4945641;28;20589;-86
2022/07/04 01:51:59;;;;;;;4.77;1.40;;;;;;;;;;4939992;29;20196;-85
2022/07/04 01:55:03;;;;;;;2.17;1.33;;;;;;;;;;4935663;29;20248;-86
2022/07/04 01:58:07;;;;;;;2.13;1.50;;;;;;;;;;4961547;28;20535;-86
2022/07/04 02:01:30;;;;;;;3.60;1.50;;;;;;;;;;4935221;29;20203;-85
2022/07/04 02:04:34;;;;;;;1.80;1.23;;;;;;;;;;4934780;28;20227;-85
2022/07/04 02:07:38;;;;;;;1.87;1.50;;;;;;;;;;4935192;28;20207;-84
2022/07/04 02:10:43;;;;;;;1.80;1.53;;;;;;;;;;4961553;28;20195;-85
2022/07/04 02:13:47;;;;;;;4.90;1.40;;;;;;;;;;4925989;29;20191;-86
2022/07/04 02:16:51;;;;;;;5.03;1.60;;;;;;;;;;4935691;29;20183;-85
2022/07/04 02:19:55;;;;;;;5.83;1.97;;;;;;;;;;4963784;28;20195;-86
2022/07/04 02:23:00;;;;;;;2.43;1.60;;;;;;;;;;4965876;28;20194;-87
2022/07/04 02:26:04;;;;;;;2.53;1.60;;;;;;;;;;4955048;28;20191;-85
2022/07/04 02:29:08;;;;;;;4.47;1.60;;;;;;;;;;4946679;28;20199;-86
2022/07/04 02:32:12;;;;;;;7.00;1.50;;;;;;;;;;4953864;28;20187;-91
2022/07/04 02:35:16;;;;;;;2.60;1.50;;;;;;;;;;4947802;28;20231;-91
2022/07/04 02:38:20;;;;;;;4.00;1.50;;;;;;;;;;4925902;29;20184;-91
2022/07/04 02:41:25;;;;;;;1.43;1.30;;;;;;;;;;4925771;29;20187;-91
2022/07/04 02:44:30;;;;;;;3.03;1.37;;;;;;;;;;4947400;29;20223;-91
2022/07/04 02:47:34;;;;;;;2.67;1.60;;;;;;;;;;4938668;28;20192;-91
2022/07/04 02:50:38;;;;;;;5.40;1.63;;;;;;;;;;4938547;28;20199;-91
2022/07/04 02:53:43;;;;;;;1.80;1.20;;;;;;;;;;4955542;28;20549;-91
2022/07/04 02:56:47;;;;;;;3.47;1.57;;;;;;;;;;4941801;29;20200;-91
2022/07/04 02:59:51;;;;;;;2.10;1.50;;;;;;;;;;4925342;29;20199;-91
2022/07/04 03:02:55;;;;;;;1.73;1.60;;;;;;;;;;4955583;28;20191;-91
2022/07/04 03:05:59;;;;;;;4.33;1.40;;;;;;;;;;4948478;28;20710;-91
2022/07/04 03:09:03;;;;;;;3.13;1.50;;;;;;;;;;4925237;29;20666;-91
2022/07/04 03:12:08;;;;;;;1.87;1.30;;;;;;;;;;4937619;28;20188;-91
2022/07/04 03:15:12;;;;;;;5.87;1.80;;;;;;;;;;4955140;28;20721;-91
2022/07/04 03:18:16;;;;;;;3.83;1.70;;;;;;;;;;4936061;29;20191;-91
2022/07/04 03:21:20;;;;;;;5.63;1.77;;;;;;;;;;4936376;28;20528;-91
2022/07/04 03:24:24;;;;;;;3.33;1.80;;;;;;;;;;4949528;28;20223;-91
2022/07/04 03:27:28;;;;;;;3.23;1.70;;;;;;;;;;4946750;29;20200;-91
2022/07/04 03:30:33;;;;;;;2.13;1.80;;;;;;;;;;4939002;28;20199;-91
2022/07/04 03:33:37;;;;;;;3.03;1.97;;;;;;;;;;4943852;28;20206;-91
2022/07/04 03:36:41;;;;;;;2.27;1.40;;;;;;;;;;4954391;29;20203;-91
2022/07/04 03:39:45;;;;;;;2.87;1.70;;;;;;;;;;4946626;29;20192;-91
2022/07/04 03:42:49;;;;;;;3.63;1.93;;;;;;;;;;4947026;28;20195;-91
2022/07/04 03:45:54;;;;;;;2.73;2.00;;;;;;;;;;4937340;28;20219;-91
2022/07/04 03:48:59;;;;;;;5.87;2.00;;;;;;;;;;4936128;29;20191;-91
2022/07/04 03:52:03;;;;;;;2.07;1.90;;;;;;;;;;4939012;28;20199;-91
2022/07/04 03:55:08;;;;;;;3.57;1.87;;;;;;;;;;4954256;28;20700;-91
2022/07/04 03:58:12;;;;;;;2.40;1.80;;;;;;;;;;4935601;29;20196;-91
2022/07/04 04:01:19;;;;;;;4.53;2.20;;;;;;;;;;4924936;29;20199;-91
2022/07/04 04:07:46;;;;;;;2.97;1.87;;;;;;;;;;4946344;29;20528;-91
2022/07/04 04:10:51;;;;;;;3.47;2.00;;;;;;;;;;4951843;28;20194;-91
2022/07/04 04:13:54;;;;;;;2.67;2.00;;;;;;;;;;4942674;28;20226;-91
2022/07/04 04:16:59;;;;;;;4.73;2.10;;;;;;;;;;4937991;28;20195;-91
2022/07/04 04:20:04;;;;;;;2.20;1.90;;;;;;;;;;4924062;29;20203;-91
2022/07/04 04:23:08;;;;;;;3.63;1.90;;;;;;;;;;4943382;28;20187;-91
2022/07/04 04:26:12;;;;;;;4.13;2.17;;;;;;;;;;4944557;29;20195;-91
2022/07/04 04:29:16;;;;;;;3.63;1.80;;;;;;;;;;4946394;29;20623;-91
2022/07/04 04:32:21;;;;;;;3.30;2.03;;;;;;;;;;4934975;29;20571;-91
2022/07/04 04:35:25;;;;;;;2.60;1.90;;;;;;;;;;4934625;28;20234;-91
2022/07/04 04:38:29;;;;;;;3.73;2.03;;;;;;;;;;4925535;28;20184;-91
2022/07/04 04:41:33;;;;;;;3.87;2.00;;;;;;;;;;4954277;28;20187;-91
2022/07/04 04:44:37;;;;;;;5.43;2.07;;;;;;;;;;4953674;28;20219;-91
2022/07/04 04:47:43;;;;;;;4.53;1.87;;;;;;;;;;4923634;28;20188;-91
2022/07/04 04:50:47;;;;;;;5.33;1.97;;;;;;;;;;4923725;29;20617;-91
2022/07/04 04:53:51;;;;;;;3.73;2.00;;;;;;;;;;4944352;28;20671;-91
2022/07/04 04:56:55;;;;;;;2.10;1.87;;;;;;;;;;4935256;29;20203;-91
2022/07/04 05:00:00;;;;;;;3.83;2.10;;;;;;;;;;4934534;29;20211;-90
2022/07/04 05:03:04;;;;;;;8.13;2.10;;;;;;;;;;4939612;28;20210;-90
2022/07/04 05:06:09;;;;;;;4.67;2.17;;;;;;;;;;4942497;29;20195;-91
2022/07/04 05:09:13;;;;;;;2.40;1.97;;;;;;;;;;4944790;29;20203;-91
2022/07/04 05:12:17;;;;;;;5.00;2.13;;;;;;;;;;4937482;28;20214;-90
2022/07/04 05:15:21;;;;;;;7.37;2.23;;;;;;;;;;4924078;28;20242;-90
2022/07/04 05:18:26;;;;;;;3.87;2.00;;;;;;;;;;4933631;29;20203;-91
2022/07/04 05:21:30;;;;;;;3.30;2.13;;;;;;;;;;4922443;29;20211;-91
2022/07/04 05:24:34;;;;;;;3.30;2.00;;;;;;;;;;4933568;29;20231;-91
2022/07/04 05:27:39;;;;;;;2.23;1.87;;;;;;;;;;4936678;28;20195;-91
2022/07/04 05:30:43;;;;;;;2.37;2.03;;;;;;;;;;4923758;29;20195;-91
2022/07/04 05:33:47;;;;;;;3.03;1.70;;;;;;;;;;4934391;28;20206;-91
2022/07/04 05:36:52;;;;;;;2.23;1.80;;;;;;;;;;4952597;28;20215;-91
2022/07/04 05:39:56;;;;;;;5.37;2.10;;;;;;;;;;4952254;28;20195;-91
2022/07/04 05:43:01;;;;;;;4.20;1.90;;;;;;;;;;4947189;28;20243;-90
2022/07/04 05:46:05;;;;;;;2.70;1.70;;;;;;;;;;4922487;29;20528;-91
2022/07/04 05:49:09;;;;;;;4.23;1.70;;;;;;;;;;4933439;29;20183;-91
2022/07/04 05:52:14;;;;;;;2.10;1.80;;;;;;;;;;4960012;28;20199;-91
2022/07/04 05:55:18;;;;;;;3.07;2.37;;;;;;;;;;4922815;28;20234;-88
2022/07/04 05:58:22;;;;;;;4.00;2.00;;;;;;;;;;4952459;28;20183;-86
2022/07/04 06:01:26;;;;;;;3.40;1.93;;;;;;;;;;4950285;28;20198;-85
2022/07/04 06:04:30;;;;;;;4.03;2.27;;;;;;;;;;4969427;23;20251;-88
2022/07/04 06:07:34;;;;;;;5.17;2.03;;;;;;;;;;4932752;29;20550;-88
2022/07/04 06:10:38;;;;;;;2.93;2.30;;;;;;;;;;4932824;29;20368;-88
2022/07/04 06:13:43;;;;;;;6.63;2.13;;;;;;;;;;4921885;29;20191;-88
2022/07/04 06:16:47;;;;;;;4.37;2.10;;;;;;;;;;4902755;29;20691;-88
2022/07/04 06:19:51;;;;;;;3.80;1.90;;;;;;;;;;4909292;29;20611;-89
2022/07/04 06:22:56;;;;;;;2.33;1.83;;;;;;;;;;4913897;29;20188;-88
2022/07/04 06:26:01;;;;;;;3.27;1.93;;;;;;;;;;4913752;29;20568;-88
2022/07/04 06:29:05;;;;;;;2.43;2.10;;;;;;;;;;4943486;29;20183;-88
2022/07/04 06:32:09;;;;;;;5.40;1.93;;;;;;;;;;4928803;29;20227;-88
2022/07/04 06:38:39;;;;;;;3.87;2.30;;;;;;;;;;4937493;29;20196;-87
2022/07/04 06:41:43;;;;;;;3.77;1.90;;;;;;;;;;4905770;29;20189;-87
2022/07/04 06:44:47;;;;;;;2.93;1.97;;;;;;;;;;4887312;29;20232;-87
2022/07/04 06:47:51;;;;;;;4.23;2.27;;;;;;;;;;4913960;29;20176;-87
2022/07/04 06:50:55;;;;;;;2.97;1.90;;;;;;;;;;4916722;29;20191;-87
2022/07/04 06:53:59;;;;;;;4.13;2.07;;;;;;;;;;4921404;29;20196;-87
2022/07/04 06:57:04;;;;;;;1.60;1.50;;;;;;;;;;4954351;29;20211;-87
2022/07/04 07:00:08;;;;;;;5.93;1.97;;;;;;;;;;4913644;29;20192;-87
2022/07/04 07:03:12;;;;;;;2.47;2.00;;;;;;;;;;4927391;29;20191;-87
2022/07/04 07:06:16;;;;;;;5.37;1.90;;;;;;;;;;4912779;29;20224;-87
2022/07/04 07:09:21;;;;;;;4.13;1.80;;;;;;;;;;4913571;29;20189;-87
2022/07/04 07:12:25;;;;;;;2.77;1.70;;;;;;;;;;4913719;29;20182;-87
2022/07/04 07:15:31;;;;;;;3.47;1.97;;;;;;;;;;4916301;29;20578;-87
2022/07/04 07:18:35;;;;;;;2.70;1.93;;;;;;;;;;4915796;29;20194;-86
2022/07/04 07:21:39;;;;;;;5.13;1.83;;;;;;;;;;4897760;29;20195;-87
2022/07/04 07:24:44;;;;;;;2.57;1.63;;;;;;;;;;4925925;29;20225;-87
2022/07/04 07:27:48;;;;;;;6.40;1.80;;;;;;;;;;4905898;29;20189;-87
2022/07/04 07:30:52;;;;;;;3.53;2.07;;;;;;;;;;4916378;29;20189;-88
2022/07/04 07:33:56;;;;;;;2.33;1.70;;;;;;;;;;4905889;29;20184;-88
2022/07/04 07:37:00;;;;;;;3.20;1.73;;;;;;;;;;4936560;29;20230;-89
2022/07/04 07:40:05;;;;;;;1.90;1.60;;;;;;;;;;4905786;29;20211;-89
2022/07/04 07:43:09;;;;;;;3.00;1.90;;;;;;;;;;4905646;29;20191;-89
2022/07/04 07:46:13;;;;;;;5.73;1.53;;;;;;;;;;4932224;29;20224;-88
2022/07/04 07:49:18;;;;;;;2.90;1.70;;;;;;;;;;4914478;29;20200;-88
2022/07/04 07:52:22;;;;;;;2.93;1.80;;;;;;;;;;4934954;29;20180;-89
2022/07/04 07:55:26;;;;;;;4.70;2.00;;;;;;;;;;4915436;29;20223;-89
2022/07/04 07:58:30;;;;;;;7.40;1.70;;;;;;;;;;4919809;29;20662;-89
2022/07/04 08:01:34;;;;;;;3.53;1.70;;;;;;;;;;4915992;29;20193;-90
2022/07/04 08:04:40;;;;;;;6.00;1.73;;;;;;;;;;4908774;29;20229;-90
2022/07/04 08:07:44;;;;;;;2.60;1.60;;;;;;;;;;4945284;29;20202;-89
2022/07/04 08:10:48;;;;;;;3.67;1.67;;;;;;;;;;4932108;29;20206;-89
2022/07/04 08:13:53;;;;;;;3.07;1.70;;;;;;;;;;4904914;29;20191;-89
2022/07/04 08:16:58;;;;;;;3.10;2.20;;;;;;;;;;4914266;29;20214;-89
2022/07/04 08:20:03;;;;;;;5.57;1.63;;;;;;;;;;4912433;29;20197;-89
2022/07/04 08:23:07;;;;;;;4.77;1.60;;;;;;;;;;4902342;29;20211;-89
2022/07/04 08:26:11;;;;;;;4.53;1.97;;;;;;;;;;4926675;29;20216;-89
2022/07/04 08:29:15;;;;;;;5.33;1.60;;;;;;;;;;4904804;29;20185;-90
2022/07/04 08:32:20;;;;;;;3.57;1.80;;;;;;;;;;4904359;29;20565;-90
2022/07/04 08:35:24;;;;;;;3.60;1.70;;;;;;;;;;4928585;29;20718;-89
2022/07/04 08:38:28;;;;;;;5.03;1.90;;;;;;;;;;4885317;29;20188;-89
2022/07/04 08:41:37;;;;;;;3.53;1.70;;;;;;;;;;4938217;29;20197;-90
2022/07/04 08:44:47;;;;;;;6.45;1.60;;;;;;;;;;4911768;29;20227;-90
2022/07/04 08:47:52;;;;;;;5.50;2.13;;;;;;;;;;4902546;29;20196;-90
2022/07/04 08:51:03;;;;;;;6.13;2.00;;;;;;;;;;4917728;29;20184;-90
2022/07/04 08:58:25;;;;;;;5.50;2.50;;;;;;;;;;4919932;29;20208;-89
2022/07/04 09:00:57;;;;;;;7.50;1.98;;;;;;;;;;4914478;29;20546;-90
2022/07/04 09:04:01;;;;;;;2.00;1.70;;;;;;;;;;4925134;29;20211;-90
2022/07/04 09:07:05;;;;;;;2.90;1.98;;;;;;;;;;4939044;29;20210;-90
2022/07/04 09:10:10;;;;;;;4.97;1.77;;;;;;;;;;4926337;29;20211;-90
2022/07/04 09:13:17;;;;;;;1.83;1.38;;;;;;;;;;4908496;29;20199;-89
2022/07/04 09:16:21;;;;;;;3.47;1.75;;;;;;;;;;4903299;29;20243;-90
2022/07/04 09:19:25;;;;;;;3.35;2.00;;;;;;;;;;4930646;29;20212;-90
2022/07/04 09:22:29;;;;;;;4.03;1.77;;;;;;;;;;4922847;29;20197;-90
2022/07/04 09:25:33;;;;;;;4.00;1.88;;;;;;;;;;4907781;29;20695;-90
2022/07/04 09:28:40;;;;;;;5.38;1.70;;;;;;;;;;4903900;29;20204;-91
2022/07/04 09:31:44;;;;;;;7.18;1.63;;;;;;;;;;4911313;29;20208;-90
2022/07/04 09:34:55;;;;;;;3.35;1.65;;;;;;;;;;4884683;29;20221;-90
2022/07/04 09:38:04;;;;;;;3.80;1.63;;;;;;;;;;4909679;29;20232;-90
2022/07/04 09:41:29;;;;;;;5.22;1.52;;;;;;;;;;4914181;29;20664;-90
2022/07/04 09:44:34;;;;;;;4.45;1.23;;;;;;;;;;4942436;29;20228;-90
2022/07/04 09:47:40;;;;;;;3.50;1.67;;;;;;;;;;4933085;29;20199;-90
2022/07/04 09:50:44;;;;;;;3.92;1.50;;;;;;;;;;4930021;29;20196;-90
2022/07/04 09:53:49;;;;;;;4.30;1.48;;;;;;;;;;4895653;29;20675;-89
2022/07/04 09:56:58;;;;;;;5.25;1.30;;;;;;;;;;4905956;29;20232;-88
2022/07/04 10:00:26;;;;;;;1.90;1.45;;;;;;;;;;4910867;29;20197;-87
2022/07/04 10:03:36;;;;;;;2.00;1.40;;;;;;;;;;4922827;29;20207;-88
2022/07/04 10:06:42;;;;;;;5.72;1.90;;;;;;;;;;4922080;29;20227;-89
2022/07/04 10:09:46;;;;;;;3.45;1.50;;;;;;;;;;4913188;29;20192;-88
2022/07/04 10:12:55;;;;;;;2.55;1.50;;;;;;;;;;4917130;29;20561;-88
2022/07/04 10:15:59;;;;;;;2.83;1.60;;;;;;;;;;4927636;29;20220;-88
2022/07/04 10:19:04;;;;;;;1.88;1.48;;;;;;;;;;4945911;29;20189;-88
2022/07/04 10:22:09;;;;;;;3.30;1.60;;;;;;;;;;4913048;29;20208;-88
2022/07/04 10:25:13;;;;;;;4.55;1.60;;;;;;;;;;4905363;29;20237;-88
2022/07/04 10:28:18;;;;;;;4.40;1.38;;;;;;;;;;4888051;29;20208;-88
2022/07/04 10:31:25;;;;;;;4.95;1.30;;;;;;;;;;4903491;29;20212;-88
2022/07/04 10:34:29;;;;;;;2.83;1.35;;;;;;;;;;4922671;29;20228;-88
2022/07/04 10:38:05;;;;;;;1.95;1.30;;;;;;;;;;4919738;29;20224;-88
2022/07/04 10:41:09;;;;;;;11.25;1.50;;;;;;;;;;4898100;29;20537;-88
2022/07/04 10:44:21;;;;;;;6.20;1.58;;;;;;;;;;4939980;29;20209;-88
2022/07/04 10:47:29;;;;;;;3.03;1.40;;;;;;;;;;4916165;29;20200;-88
2022/07/04 10:50:33;;;;;;;2.80;1.10;;;;;;;;;;4916581;29;20212;-87
2022/07/04 10:54:02;;;;;;;3.38;1.55;;;;;;;;;;4923186;29;20207;-88
2022/07/04 10:57:13;;;;;;;1.33;1.10;;;;;;;;;;4909095;29;20554;-89
2022/07/04 11:00:17;;;;;;;1.92;1.15;;;;;;;;;;4931349;29;20592;-90
2022/07/04 11:03:22;;;;;;;3.45;1.30;;;;;;;;;;4921588;29;20195;-91
2022/07/04 11:06:35;;;;;;;3.17;1.20;;;;;;;;;;4919848;29;20239;-90
2022/07/04 11:09:40;;;;;;;2.63;1.50;;;;;;;;;;4931195;29;20193;-90
2022/07/04 11:12:53;;;;;;;2.88;1.50;;;;;;;;;;4924502;29;20196;-90
2022/07/04 11:15:58;;;;;;;4.55;1.45;;;;;;;;;;4916977;29;20586;-90
2022/07/04 11:19:02;;;;;;;3.95;1.50;;;;;;;;;;4906115;29;20189;-90
2022/07/04 11:22:09;;;;;;;3.10;1.05;;;;;;;;;;4933966;29;20207;-90
2022/07/04 11:25:15;;;;;;;3.25;1.17;;;;;;;;;;4944375;29;20227;-90
2022/07/04 11:28:28;;;;;;;2.35;1.20;;;;;;;;;;4927749;29;20177;-90
2022/07/04 11:31:45;;;;;;;3.33;1.10;;;;;;;;;;4914222;29;20543;-90
2022/07/04 11:34:49;;;;;;;1.38;1.20;;;;;;;;;;4945038;29;20220;-90
2022/07/04 11:37:57;;;;;;;10.18;1.15;;;;;;;;;;4905560;29;20664;-91
2022/07/04 11:47:49;;;;;;;2.85;1.20;;;;;;;;;;4920131;29;20192;-90
2022/07/04 11:50:53;;;;;;;1.30;0.95;;;;;;;;;;4932209;29;20209;-90
2022/07/04 11:54:05;;;;;;;4.03;1.65;;;;;;;;;;4916158;29;20197;-90
2022/07/04 11:57:18;;;;;;;2.30;1.00;;;;;;;;;;4912452;29;20690;-90
2022/07/04 12:00:35;;;;;;;3.45;1.30;;;;;;;;;;4911333;29;20561;-90
2022/07/04 12:03:39;;;;;;;3.30;1.17;;;;;;;;;;4915265;29;20204;-87
2022/07/04 12:06:48;;;;;;;9.95;1.92;;;;;;;;;;4973747;23;20239;-88
2022/07/04 12:09:53;;;;;;;3.15;1.40;;;;;;;;;;4954793;28;20184;-88
2022/07/04 12:12:59;;;;;;;4.40;1.45;;;;;;;;;;4965134;28;20638;-88
2022/07/04 12:16:11;;;;;;;4.03;1.88;;;;;;;;;;4954179;28;20234;-88
2022/07/04 12:19:16;;;;;;;2.10;1.50;;;;;;;;;;4965512;28;20667;-88
2022/07/04 12:22:41;;;;;;;3.83;1.50;;;;;;;;;;4965200;28;20175;-88
2022/07/04 12:25:47;;;;;;;4.03;1.70;;;;;;;;;;4934843;29;20231;-88
2022/07/04 12:28:51;;;;;;;2.38;1.20;;;;;;;;;;4934843;29;20640;-88
2022/07/04 12:32:01;;;;;;;4.47;1.58;;;;;;;;;;4959753;28;20199;-88
2022/07/04 12:35:09;;;;;;;4.22;1.40;;;;;;;;;;4953555;28;20191;-88
2022/07/04 12:38:24;;;;;;;4.18;1.20;;;;;;;;;;4942410;28;20211;-89
2022/07/04 12:41:29;;;;;;;3.45;1.30;;;;;;;;;;4953681;28;20187;-89
2022/07/04 12:44:34;;;;;;;4.18;1.10;;;;;;;;;;4964926;28;20531;-89
2022/07/04 12:47:47;;;;;;;2.60;1.30;;;;;;;;;;4964103;28;20226;-89
2022/07/04 12:50:52;;;;;;;6.68;1.25;;;;;;;;;;4964482;28;20187;-89
2022/07/04 12:53:58;;;;;;;6.05;1.40;;;;;;;;;;4953572;28;20180;-89
2022/07/04 12:57:18;;;;;;;2.38;1.20;;;;;;;;;;4953232;28;20211;-89
2022/07/04 13:00:22;;;;;;;3.30;1.58;;;;;;;;;;4953402;28;20183;-89
2022/07/04 13:03:51;;;;;;;4.80;1.48;;;;;;;;;;4964582;28;20534;-89
2022/07/04 13:06:57;;;;;;;3.65;1.52;;;;;;;;;;4964058;28;20223;-89
2022/07/04 13:10:01;;;;;;;2.20;1.20;;;;;;;;;;4952853;28;20187;-89
2022/07/04 13:13:05;;;;;;;3.20;1.30;;;;;;;;;;4971164;28;20570;-89
2022/07/04 13:16:09;;;;;;;3.13;1.30;;;;;;;;;;4952139;28;20222;-89
2022/07/04 13:19:13;;;;;;;3.00;1.30;;;;;;;;;;4953671;28;20207;-89
2022/07/04 13:22:17;;;;;;;2.83;1.00;;;;;;;;;;4963996;28;20199;-89
2022/07/04 13:25:22;;;;;;;2.55;1.30;;;;;;;;;;4983257;28;20191;-89
2022/07/04 13:28:26;;;;;;;2.65;1.20;;;;;;;;;;4972413;28;20210;-89
2022/07/04 13:31:30;;;;;;;2.03;1.42;;;;;;;;;;4972584;28;20179;-89
2022/07/04 13:34:35;;;;;;;2.90;1.20;;;;;;;;;;4983497;28;20657;-89
2022/07/04 13:37:42;;;;;;;1.55;1.10;;;;;;;;;;4994629;28;20179;-89
2022/07/04 13:40:49;;;;;;;3.10;1.40;;;;;;;;;;4951347;28;20190;-89
2022/07/04 13:43:56;;;;;;;4.30;1.40;;;;;;;;;;4973617;28;20182;-89
2022/07/04 13:47:02;;;;;;;5.22;1.30;;;;;;;;;;4941526;28;20226;-89
2022/07/04 13:50:06;;;;;;;1.70;1.15;;;;;;;;;;4942943;28;20196;-89
2022/07/04 13:53:11;;;;;;;4.15;1.30;;;;;;;;;;4953207;28;20183;-89
2022/07/04 13:56:17;;;;;;;3.65;1.23;;;;;;;;;;4941849;28;20227;-89
2022/07/04 13:59:26;;;;;;;3.45;1.33;;;;;;;;;;4950970;28;20187;-88
2022/07/04 14:02:31;;;;;;;4.47;1.35;;;;;;;;;;4952771;28;20191;-88
2022/07/04 14:05:35;;;;;;;2.08;1.20;;;;;;;;;;4963052;28;20226;-88
2022/07/04 14:08:39;;;;;;;2.97;1.35;;;;;;;;;;4973739;28;20214;-88
2022/07/04 14:11:45;;;;;;;3.50;1.30;;;;;;;;;;4984967;28;20211;-88
2022/07/04 14:14:50;;;;;;;4.00;1.33;;;;;;;;;;4959000;28;20195;-89
2022/07/04 14:17:54;;;;;;;1.98;1.20;;;;;;;;;;4972020;28;20516;-89
2022/07/04 14:20:59;;;;;;;2.92;1.30;;;;;;;;;;4949137;28;20187;-89
2022/07/04 14:24:05;;;;;;;2.65;1.38;;;;;;;;;;4960016;28;20179;-88
2022/07/04 14:27:09;;;;;;;4.63;1.50;;;;;;;;;;4961617;28;20222;-88
2022/07/04 14:30:13;;;;;;;3.53;1.35;;;;;;;;;;4973877;28;20199;-89
2022/07/04 14:33:17;;;;;;;2.75;1.30;;;;;;;;;;4973332;28;20191;-89
2022/07/04 14:36:21;;;;;;;1.55;1.30;;;;;;;;;;4972969;28;20218;-88
2022/07/04 14:39:27;;;;;;;4.88;2.42;;;;;;;;;;4979417;28;20191;-89
2022/07/04 14:42:31;;;;;;;2.47;1.20;;;;;;;;;;4960995;28;20183;-89
2022/07/04 14:45:35;;;;;;;5.38;1.25;;;;;;;;;;4982279;28;20215;-89
2022/07/04 14:48:39;;;;;;;2.58;1.17;;;;;;;;;;4977223;28;20677;-89
2022/07/04 14:51:44;;;;;;;2.95;1.33;;;;;;;;;;4977856;28;20182;-88
2022/07/04 14:54:48;;;;;;;3.65;1.15;;;;;;;;;;4966148;28;20202;-88
2022/07/04 14:57:52;;;;;;;2.85;1.13;;;;;;;;;;4976702;28;20183;-89
2022/07/04 15:00:57;;;;;;;3.40;1.40;;;;;;;;;;4975888;28;20194;-89
2022/07/04 15:04:03;;;;;;;3.65;1.10;;;;;;;;;;4955234;28;20552;-88
2022/07/04 15:07:07;;;;;;;2.47;1.23;;;;;;;;;;4965917;28;20234;-88
2022/07/04 15:10:12;;;;;;;5.95;1.65;;;;;;;;;;4945785;28;20183;-88
2022/07/04 15:13:16;;;;;;;4.10;1.35;;;;;;;;;;4983582;28;20194;-88
2022/07/04 15:16:20;;;;;;;2.70;1.10;;;;;;;;;;4965407;28;20223;-88
2022/07/04 15:19:24;;;;;;;2.10;1.30;;;;;;;;;;4972537;28;20186;-89
2022/07/04 15:25:52;;;;;;;5.22;1.20;;;;;;;;;;4976403;28;20218;-89
2022/07/04 15:28:57;;;;;;;7.07;1.50;;;;;;;;;;4978099;28;20221;-88
2022/07/04 15:32:01;;;;;;;4.25;1.30;;;;;;;;;;4974732;28;20506;-88
2022/07/04 15:35:06;;;;;;;3.38;1.20;;;;;;;;;;4986234;28;20643;-88
2022/07/04 15:38:10;;;;;;;4.68;1.40;;;;;;;;;;4950491;28;20188;-89
2022/07/04 15:41:15;;;;;;;18.05;2.08;;;;;;;;;;4964250;28;20190;-88
2022/07/04 15:44:21;;;;;;;2.88;1.40;;;;;;;;;;4974421;28;20202;-88
2022/07/04 15:47:25;;;;;;;2.22;1.35;;;;;;;;;;4968034;28;20233;-89
2022/07/04 15:50:29;;;;;;;3.92;1.10;;;;;;;;;;4984404;28;20201;-88
2022/07/04 15:53:33;;;;;;;1.83;1.10;;;;;;;;;;4985811;28;20214;-87
2022/07/04 15:56:38;;;;;;;9.02;1.70;;;;;;;;;;4963331;28;20224;-88
2022/07/04 15:59:42;;;;;;;2.50;1.40;;;;;;;;;;4974867;28;20174;-88
2022/07/04 16:02:46;;;;;;;2.10;1.15;;;;;;;;;;4974550;28;20197;-88
2022/07/04 16:05:51;;;;;;;1.80;1.35;;;;;;;;;;4964907;28;20229;-88
2022/07/04 16:08:55;;;;;;;4.47;1.38;;;;;;;;;;4964490;28;20225;-88
2022/07/04 16:11:59;;;;;;;3.63;1.40;;;;;;;;;;4980725;28;20205;-88
2022/07/04 16:15:03;;;;;;;4.78;1.60;;;;;;;;;;4971367;28;20196;-88
2022/07/04 16:18:08;;;;;;;1.40;1.20;;;;;;;;;;4974047;28;20554;-88
2022/07/04 16:21:12;;;;;;;1.98;1.40;;;;;;;;;;4954272;28;20557;-88
2022/07/04 16:24:16;;;;;;;5.00;1.40;;;;;;;;;;4955795;28;20208;-88
2022/07/04 16:27:20;;;;;;;1.92;1.23;;;;;;;;;;4973014;28;20224;-88
2022/07/04 16:30:24;;;;;;;4.55;1.70;;;;;;;;;;4972493;28;20196;-88
2022/07/04 16:33:29;;;;;;;3.25;1.48;;;;;;;;;;4977860;28;20201;-88
2022/07/04 16:36:37;;;;;;;5.38;1.35;;;;;;;;;;4974060;28;20222;-88
2022/07/04 16:39:42;;;;;;;3.17;1.30;;;;;;;;;;4962229;28;20205;-88
2022/07/04 16:42:49;;;;;;;2.95;1.20;;;;;;;;;;4973741;28;20518;-88
2022/07/04 16:45:53;;;;;;;1.40;1.23;;;;;;;;;;4962383;28;20220;-88
2022/07/04 16:48:58;;;;;;;1.90;1.38;;;;;;;;;;4955506;28;20564;-88
2022/07/04 16:52:03;;;;;;;2.63;1.63;;;;;;;;;;4961945;28;20194;-88
2022/07/04 16:55:07;;;;;;;3.33;1.67;;;;;;;;;;4968281;28;20200;-88
2022/07/04 16:58:11;;;;;;;3.60;1.45;;;;;;;;;;4972447;28;20196;-88
2022/07/04 17:01:16;;;;;;;2.38;1.40;;;;;;;;;;4975770;28;20191;-88
2022/07/04 17:04:20;;;;;;;3.63;1.42;;;;;;;;;;4981729;28;20200;-88
2022/07/04 17:07:24;;;;;;;2.15;1.40;;;;;;;;;;4961339;28;20240;-88
2022/07/04 17:10:28;;;;;;;6.82;1.75;;;;;;;;;;4958911;28;20227;-88
2022/07/04 17:13:34;;;;;;;3.95;1.75;;;;;;;;;;4961410;28;20204;-89
2022/07/04 17:16:38;;;;;;;3.38;1.80;;;;;;;;;;4948581;28;20224;-89
2022/07/04 17:19:42;;;;;;;6.35;1.58;;;;;;;;;;4971927;28;20196;-87
2022/07/04 17:22:47;;;;;;;3.55;1.65;;;;;;;;;;4963675;28;20190;-87
2022/07/04 17:25:51;;;;;;;1.65;1.30;;;;;;;;;;4974841;28;20230;-87
2022/07/04 17:28:55;;;;;;;4.28;1.50;;;;;;;;;;4963468;28;20209;-87
2022/07/04 17:31:59;;;;;;;4.85;1.40;;;;;;;;;;4963568;28;20190;-87
2022/07/04 17:35:04;;;;;;;2.55;1.42;;;;;;;;;;4965242;28;20194;-87
2022/07/04 17:38:08;;;;;;;5.28;1.55;;;;;;;;;;4971945;28;20194;-87
2022/07/04 17:44:37;;;;;;;2.47;1.40;;;;;;;;;;4974674;28;20198;-90
2022/07/04 17:47:41;;;;;;;4.07;1.60;;;;;;;;;;4942363;28;20515;-87
2022/07/04 17:50:45;;;;;;;3.77;1.50;;;;;;;;;;4967820;28;20291;-87
2022/07/04 17:53:50;;;;;;;4.70;1.70;;;;;;;;;;4971880;28;20544;-86
2022/07/04 17:56:54;;;;;;;4.17;1.77;;;;;;;;;;4971524;28;20219;-87
2022/07/04 17:59:59;;;;;;;5.13;1.60;;;;;;;;;;4949687;28;20538;-90
2022/07/04 18:03:03;;;;;;;3.43;1.80;;;;;;;;;;4951726;28;20666;-87
2022/07/04 18:06:08;;;;;;;5.50;1.60;;;;;;;;;;4990909;23;20236;-87
2022/07/04 18:09:13;;;;;;;4.97;1.43;;;;;;;;;;4982549;28;20690;-87
2022/07/04 18:12:17;;;;;;;5.37;1.53;;;;;;;;;;4960654;28;20194;-87
2022/07/04 18:15:21;;;;;;;2.60;1.63;;;;;;;;;;4963814;28;20190;-88
2022/07/04 18:18:25;;;;;;;3.63;1.77;;;;;;;;;;4922698;29;20185;-88
2022/07/04 18:21:30;;;;;;;1.60;1.37;;;;;;;;;;4961095;28;20626;-88
2022/07/04 18:24:34;;;;;;;5.97;1.83;;;;;;;;;;4963558;28;20667;-87
2022/07/04 18:27:39;;;;;;;5.30;2.10;;;;;;;;;;4953606;28;20225;-87
2022/07/04 18:30:43;;;;;;;5.83;1.70;;;;;;;;;;4964114;28;20218;-87
2022/07/04 18:33:47;;;;;;;4.77;1.87;;;;;;;;;;4952650;28;20642;-87
2022/07/04 18:36:52;;;;;;;3.20;1.80;;;;;;;;;;4947512;28;20221;-87
2022/07/04 18:39:57;;;;;;;6.53;1.80;;;;;;;;;;4944823;29;20184;-87
2022/07/04 18:46:24;;;;;;;4.23;1.50;;;;;;;;;;4938797;28;20228;-87
2022/07/04 18:49:30;;;;;;;3.27;1.90;;;;;;;;;;4975150;28;20217;-88
2022/07/04 18:52:36;;;;;;;1.80;1.60;;;;;;;;;;4959271;28;20570;-88
2022/07/04 18:55:40;;;;;;;2.30;1.60;;;;;;;;;;4952966;28;20188;-87
2022/07/04 18:58:44;;;;;;;3.93;1.80;;;;;;;;;;4949298;28;20544;-87